Mc Donald, Ohio
Current Conditions -  °F | °C
As of 6:51 AM on Sunday 25 Jan 2015 (Local Time) from KYNG Reporting Station
Light Snow Light Snow  
Wind Chill: 33°   Ceiling: 200
Heat Index: 33°   Visibility: 0.75mi
Dew Point: 32°   Wind: 3mph
Humidity: 96%   Direction: 260°W
Pressure: 29.73"   Gusts: NA
Location:  41.1587°N, 80.7233°W
Report Text: KYNG 251151Z 26003KT 3/4SM -SN BR OVC002 01/00 A2973 RMK AO2 SLP079 60005 70005 4/004 T00060000 10006 20000 53008
Loading
Personal Weather Stations






























Interactive Weather Map New forecast layout! Learn more

10-Day Weather Forecast

Advertisements
Track Severe Weather on mobile